カンポ・グランデ の空港の天気 - METARとTAF

カンポ・グランデ国際空港 ( SBCG / CGR ) - ブラジル マットグロッソ・ド・スル州カンポ・グランデ
飛行場実況気象(Metar)
観測時間10/18 04:00 AMT (10/18 08:00 UTC)
風向・風速北 3m/s
視程10km以上
天気現象
なし
気温24℃
湿度69%
気圧1013hPa
METARSBCG 180800Z 36006KT CAVOK 24/18 Q1013
過去の天気等 Google飛行場航空写真 Wunderground天気予報

過去48時間のMETAR

飛行場予報(TAF)
発表時間: 10/17 23:00 AMT (10/18 03:00 UTC)
予報対象時間: 18日2時 AMT ~ 19日2時 AMT
風向・風速東 4m/s
視程10km以上
少しの雲 雲底高度 1370m
18日14時 AMT ~ 18日16時 AMT に一時的に
天気現象周辺で雷
全天の4割程度の雲 雲底高度 1220m
少しの積乱雲 雲底高度 1370m
TAF SBCG 180300Z 1806/1906 10007KT 9999 FEW045 TN25/1808Z TX34/1818Z
TEMPO 1818/1820 VCTS SCT040 FEW045CB RMK PDJ